createdAt,value
2023-05-12T00:02:29.979Z,500.00
2023-05-12T00:03:30.949Z,500.00
2023-05-12T00:04:30.903Z,500.00
2023-05-12T00:05:30.876Z,500.00
2023-05-12T00:06:30.895Z,500.00
2023-05-12T00:07:30.920Z,500.00
2023-05-12T00:08:30.950Z,448.00
2023-05-12T00:09:30.982Z,423.00
2023-05-12T00:10:31.017Z,418.00
2023-05-12T00:11:31.054Z,428.00
2023-05-12T00:12:31.081Z,445.00
2023-05-12T00:13:31.156Z,471.00
2023-05-12T00:14:31.163Z,499.00
2023-05-12T00:15:31.191Z,499.00
2023-05-12T00:16:31.286Z,500.00
2023-05-12T00:17:31.316Z,498.00
2023-05-12T00:18:31.481Z,500.00
2023-05-12T00:19:31.391Z,500.00
2023-05-12T00:20:31.425Z,500.00
2023-05-12T00:21:31.462Z,500.00
2023-05-12T00:22:31.502Z,500.00
2023-05-12T00:23:31.557Z,500.00
2023-05-12T00:24:31.609Z,500.00
2023-05-12T00:25:31.654Z,500.00
2023-05-12T00:26:31.701Z,501.00
2023-05-12T00:27:31.758Z,500.00
2023-05-12T00:28:31.799Z,503.00
2023-05-12T00:29:31.853Z,503.00
2023-05-12T00:30:31.901Z,507.00
2023-05-12T00:31:31.981Z,503.00
2023-05-12T00:32:32.046Z,500.00
2023-05-12T00:33:32.048Z,503.00
2023-05-12T00:34:32.114Z,501.00
2023-05-12T00:35:32.174Z,502.00
2023-05-12T00:36:32.190Z,505.00
2023-05-12T00:37:32.238Z,502.00
2023-05-12T00:38:32.284Z,500.00
2023-05-12T00:39:32.366Z,504.00
2023-05-12T00:40:32.397Z,501.00
2023-05-12T00:41:32.420Z,508.00
2023-05-12T00:42:32.468Z,508.00
2023-05-12T00:43:32.525Z,500.00
2023-05-12T00:44:32.563Z,504.00
2023-05-12T00:45:32.651Z,505.00
2023-05-12T00:46:32.657Z,502.00
2023-05-12T00:47:32.726Z,503.00
2023-05-12T00:48:32.748Z,502.00
2023-05-12T00:49:32.799Z,502.00
2023-05-12T00:50:32.887Z,500.00
2023-05-12T00:51:32.899Z,510.00
2023-05-12T00:52:32.955Z,504.00
2023-05-12T00:53:45.443Z,505.00
2023-05-12T00:54:32.985Z,505.00
2023-05-12T00:55:32.980Z,506.00
2023-05-12T00:56:32.978Z,506.00
2023-05-12T00:57:32.971Z,507.00
2023-05-12T00:58:32.968Z,505.00
2023-05-12T00:59:32.990Z,504.00
2023-05-12T01:00:32.973Z,505.00
2023-05-12T01:01:33.033Z,501.00
2023-05-12T01:02:33.098Z,504.00
2023-05-12T01:03:33.268Z,506.00
2023-05-12T01:04:32.937Z,501.00
2023-05-12T01:05:32.939Z,503.00
2023-05-12T01:06:32.978Z,501.00
2023-05-12T01:07:32.925Z,506.00
2023-05-12T01:08:32.910Z,503.00
2023-05-12T01:09:32.910Z,503.00
2023-05-12T01:10:32.908Z,506.00
2023-05-12T01:11:32.917Z,510.00
2023-05-12T01:12:32.910Z,507.00
2023-05-12T01:13:32.912Z,503.00
2023-05-12T01:14:32.896Z,504.00
2023-05-12T01:15:32.906Z,505.00
2023-05-12T01:16:32.893Z,512.00
2023-05-12T01:17:33.031Z,510.00
2023-05-12T01:18:32.989Z,504.00
2023-05-12T01:19:32.894Z,504.00
2023-05-12T01:20:32.896Z,502.00
2023-05-12T01:21:32.890Z,511.00
2023-05-12T01:22:32.919Z,509.00
2023-05-12T01:23:32.893Z,504.00
2023-05-12T01:24:32.915Z,505.00
2023-05-12T01:25:32.940Z,500.00
2023-05-12T01:26:32.988Z,511.00
2023-05-12T01:27:33.052Z,507.00
2023-05-12T01:28:33.092Z,509.00
2023-05-12T01:29:33.149Z,510.00
2023-05-12T01:30:33.202Z,510.00
2023-05-12T01:31:33.351Z,504.00
2023-05-12T01:32:33.358Z,509.00
2023-05-12T01:33:33.380Z,510.00
2023-05-12T01:34:33.439Z,506.00
2023-05-12T01:35:33.485Z,511.00
2023-05-12T01:36:33.541Z,503.00
2023-05-12T01:37:33.585Z,506.00
2023-05-12T01:38:33.658Z,506.00
2023-05-12T01:39:33.692Z,503.00
2023-05-12T01:40:33.742Z,512.00
2023-05-12T01:41:33.831Z,505.00
2023-05-12T01:42:33.832Z,509.00
2023-05-12T01:43:33.875Z,505.00
2023-05-12T01:44:33.926Z,503.00
2023-05-12T01:45:33.971Z,509.00
2023-05-12T01:46:34.052Z,507.00
2023-05-12T01:47:34.068Z,510.00
2023-05-12T01:48:34.097Z,510.00
2023-05-12T01:49:34.157Z,509.00
2023-05-12T01:50:34.205Z,506.00
2023-05-12T01:51:34.248Z,504.00
2023-05-12T01:52:34.286Z,506.00
2023-05-12T01:53:34.328Z,502.00
2023-05-12T01:54:34.405Z,504.00
2023-05-12T01:55:34.446Z,509.00
2023-05-12T01:56:34.486Z,509.00
2023-05-12T01:57:34.537Z,507.00
2023-05-12T01:58:34.634Z,504.00
2023-05-12T01:59:34.636Z,508.00
2023-05-12T02:00:34.696Z,509.00
2023-05-12T02:01:34.760Z,506.00
2023-05-12T02:02:34.883Z,502.00
2023-05-12T02:03:34.865Z,506.00
2023-05-12T02:04:34.873Z,513.00
2023-05-12T02:05:34.928Z,503.00
2023-05-12T02:06:34.991Z,510.00
2023-05-12T02:07:35.033Z,505.00
2023-05-12T02:08:35.080Z,509.00
2023-05-12T02:09:35.126Z,509.00
2023-05-12T02:10:35.207Z,506.00
2023-05-12T02:11:35.235Z,508.00
2023-05-12T02:12:35.281Z,507.00
2023-05-12T02:13:35.336Z,508.00
2023-05-12T02:14:35.383Z,506.00
2023-05-12T02:15:35.448Z,513.00
2023-05-12T02:16:35.564Z,507.00
2023-05-12T02:17:35.578Z,511.00
2023-05-12T02:18:35.658Z,507.00
2023-05-12T02:19:35.638Z,511.00
2023-05-12T02:20:35.687Z,505.00
2023-05-12T02:21:35.735Z,507.00
2023-05-12T02:22:35.781Z,504.00
2023-05-12T02:23:35.839Z,512.00
2023-05-12T02:24:35.881Z,506.00
2023-05-12T02:25:35.946Z,512.00
2023-05-12T02:26:36.074Z,508.00
2023-05-12T02:27:36.042Z,508.00
2023-05-12T02:28:36.081Z,512.00
2023-05-12T02:29:36.136Z,508.00
2023-05-12T02:30:36.187Z,509.00
2023-05-12T02:31:36.276Z,509.00
2023-05-12T02:32:36.335Z,509.00
2023-05-12T02:33:36.360Z,508.00
2023-05-12T02:34:36.407Z,511.00
2023-05-12T02:35:36.461Z,508.00
2023-05-12T02:36:36.538Z,509.00
2023-05-12T02:37:36.586Z,515.00
2023-05-12T02:38:36.644Z,509.00
2023-05-12T02:39:36.722Z,508.00
2023-05-12T02:40:36.747Z,506.00
2023-05-12T02:41:36.801Z,508.00
2023-05-12T02:42:36.871Z,510.00
2023-05-12T02:43:36.898Z,510.00
2023-05-12T02:44:36.952Z,511.00
2023-05-12T02:45:37.021Z,508.00
2023-05-12T02:46:37.063Z,511.00
2023-05-12T02:47:37.128Z,513.00
2023-05-12T02:48:37.151Z,507.00
2023-05-12T02:49:37.200Z,513.00
2023-05-12T02:50:37.253Z,512.00
2023-05-12T02:51:37.306Z,504.00
2023-05-12T02:52:37.365Z,505.00
2023-05-12T02:53:37.413Z,510.00
2023-05-12T02:54:37.472Z,511.00
2023-05-12T02:55:37.517Z,511.00
2023-05-12T02:56:37.569Z,509.00
2023-05-12T02:57:37.623Z,511.00
2023-05-12T02:58:37.707Z,513.00
2023-05-12T02:59:37.735Z,509.00
2023-05-12T03:00:37.776Z,508.00
2023-05-12T03:01:37.922Z,514.00
2023-05-12T03:02:37.928Z,506.00
2023-05-12T03:03:38.188Z,511.00
2023-05-12T03:04:37.995Z,513.00
2023-05-12T03:05:38.053Z,512.00
2023-05-12T03:06:38.104Z,509.00
2023-05-12T03:07:38.158Z,508.00
2023-05-12T03:08:38.212Z,509.00
2023-05-12T03:09:38.259Z,516.00
2023-05-12T03:10:38.306Z,513.00
2023-05-12T03:11:38.363Z,508.00
2023-05-12T03:12:38.428Z,510.00
2023-05-12T03:13:38.476Z,506.00
2023-05-12T03:14:38.584Z,515.00
2023-05-12T03:15:38.540Z,511.00
2023-05-12T03:16:38.639Z,509.00
2023-05-12T03:17:38.722Z,511.00
2023-05-12T03:18:38.713Z,517.00
2023-05-12T03:19:38.747Z,513.00
2023-05-12T03:20:38.777Z,514.00
2023-05-12T03:21:38.810Z,507.00
2023-05-12T03:22:38.858Z,512.00
2023-05-12T03:23:38.894Z,516.00
2023-05-12T03:24:38.951Z,512.00
2023-05-12T03:25:39.005Z,513.00
2023-05-12T03:26:39.036Z,518.00
2023-05-12T03:27:39.077Z,516.00
2023-05-12T03:28:39.117Z,512.00
2023-05-12T03:29:39.165Z,511.00
2023-05-12T03:30:39.227Z,505.00
2023-05-12T03:31:39.250Z,508.00
2023-05-12T03:32:39.330Z,505.00
2023-05-12T03:33:39.256Z,503.00
2023-05-12T03:34:39.270Z,502.00
2023-05-12T03:35:39.330Z,505.00
2023-05-12T03:36:39.317Z,506.00
2023-05-12T03:37:39.348Z,505.00
2023-05-12T03:38:39.363Z,499.00
2023-05-12T03:39:39.375Z,511.00
2023-05-12T03:40:39.389Z,507.00
2023-05-12T03:41:39.416Z,512.00
2023-05-12T03:42:39.432Z,515.00
2023-05-12T03:43:39.453Z,510.00
2023-05-12T03:44:39.463Z,508.00
2023-05-12T03:45:39.477Z,507.00
2023-05-12T03:46:39.573Z,510.00
2023-05-12T03:47:39.538Z,504.00
2023-05-12T03:48:39.494Z,506.00
2023-05-12T03:49:39.513Z,507.00
2023-05-12T03:50:39.520Z,503.00
2023-05-12T03:51:39.537Z,508.00
2023-05-12T03:52:39.539Z,503.00
2023-05-12T03:53:39.562Z,505.00
2023-05-12T03:54:39.554Z,506.00
2023-05-12T03:55:39.566Z,505.00
2023-05-12T03:56:39.574Z,504.00
2023-05-12T03:57:39.574Z,504.00
2023-05-12T03:58:39.583Z,506.00
2023-05-12T03:59:39.594Z,507.00
2023-05-12T04:00:39.579Z,501.00
2023-05-12T04:01:39.606Z,503.00
2023-05-12T04:02:39.695Z,501.00
2023-05-12T04:03:39.653Z,509.00
2023-05-12T04:04:38.605Z,505.00
2023-05-12T04:05:39.736Z,508.00
2023-05-12T04:06:39.611Z,509.00
2023-05-12T04:07:39.623Z,510.00
2023-05-12T04:08:41.849Z,509.00
2023-05-12T04:09:39.614Z,520.00
2023-05-12T04:10:39.611Z,514.00
2023-05-12T04:11:39.629Z,509.00
2023-05-12T04:12:39.629Z,507.00
2023-05-12T04:13:39.586Z,508.00
2023-05-12T04:14:43.252Z,507.00
2023-05-12T04:15:39.563Z,507.00
2023-05-12T04:16:39.629Z,508.00
2023-05-12T04:17:39.586Z,510.00
2023-05-12T04:18:39.604Z,508.00
2023-05-12T04:19:39.541Z,512.00
2023-05-12T04:20:39.529Z,510.00
2023-05-12T04:21:39.563Z,512.00
2023-05-12T04:22:39.515Z,513.00
2023-05-12T04:23:39.507Z,513.00
2023-05-12T04:24:39.495Z,501.00
2023-05-12T04:25:39.477Z,508.00
2023-05-12T04:26:39.475Z,507.00
2023-05-12T04:27:39.467Z,509.00
2023-05-12T04:28:39.437Z,505.00
2023-05-12T04:29:39.430Z,507.00
2023-05-12T04:30:39.408Z,505.00
2023-05-12T04:31:39.434Z,507.00
2023-05-12T04:32:39.462Z,503.00
2023-05-12T04:33:39.376Z,507.00
2023-05-12T04:34:39.404Z,505.00
2023-05-12T04:35:39.342Z,506.00
2023-05-12T04:36:39.326Z,504.00
2023-05-12T04:37:39.323Z,504.00
2023-05-12T04:38:39.295Z,507.00
2023-05-12T04:39:39.291Z,509.00
2023-05-12T04:40:39.271Z,511.00
2023-05-12T04:41:39.281Z,507.00
2023-05-12T04:42:39.246Z,510.00
2023-05-12T04:44:38.213Z,504.00
2023-05-12T04:45:39.199Z,504.00
2023-05-12T04:46:39.285Z,506.00
2023-05-12T04:47:39.188Z,507.00
2023-05-12T04:48:39.148Z,506.00
2023-05-12T04:49:39.137Z,507.00
2023-05-12T04:50:39.175Z,507.00
2023-05-12T04:51:39.118Z,511.00
2023-05-12T04:52:39.120Z,503.00
2023-05-12T04:53:39.113Z,505.00
2023-05-12T04:54:39.098Z,508.00
2023-05-12T04:55:39.167Z,505.00
2023-05-12T04:56:39.152Z,510.00
2023-05-12T04:57:39.187Z,510.00
2023-05-12T04:58:39.188Z,506.00
2023-05-12T04:59:41.211Z,507.00
2023-05-12T05:00:39.054Z,507.00
2023-05-12T05:01:39.084Z,507.00
2023-05-12T05:02:39.124Z,507.00
2023-05-12T05:03:39.154Z,508.00
2023-05-12T05:04:39.022Z,507.00
2023-05-12T05:05:39.017Z,510.00
2023-05-12T05:06:39.037Z,507.00
2023-05-12T05:07:39.005Z,507.00
2023-05-12T05:08:39.007Z,508.00
2023-05-12T05:09:38.996Z,506.00
2023-05-12T05:10:38.990Z,500.00
2023-05-12T05:11:38.989Z,500.00
2023-05-12T05:12:38.993Z,500.00
2023-05-12T05:13:38.981Z,500.00
2023-05-12T05:14:38.994Z,500.00
2023-05-12T05:15:39.034Z,505.00
2023-05-12T05:16:38.972Z,502.00
2023-05-12T05:17:39.047Z,506.00
2023-05-12T05:18:38.976Z,500.00
2023-05-12T05:19:53.075Z,499.00
2023-05-12T05:20:40.931Z,500.00
2023-05-12T05:21:38.943Z,500.00
2023-05-12T05:22:39.022Z,501.00
2023-05-12T05:23:38.919Z,502.00
2023-05-12T05:24:38.928Z,547.00
2023-05-12T05:25:39.008Z,554.00
2023-05-12T05:26:38.950Z,526.00
2023-05-12T05:27:38.960Z,507.00
2023-05-12T05:28:38.907Z,503.00
2023-05-12T05:29:38.937Z,500.00
2023-05-12T05:30:38.906Z,502.00
2023-05-12T05:47:07.461Z,500.00
2023-05-12T05:48:06.751Z,500.00
2023-05-12T05:49:06.727Z,500.00
2023-05-12T05:50:06.782Z,500.00
2023-05-12T05:51:06.743Z,500.00
2023-05-12T05:52:06.892Z,500.00
2023-05-12T05:53:07.133Z,505.00
2023-05-12T05:54:22.435Z,502.00
2023-05-12T05:55:09.981Z,497.00
2023-05-12T05:56:06.812Z,490.00
2023-05-12T05:58:14.177Z,471.00
2023-05-12T05:59:10.001Z,483.00
2023-05-12T06:00:06.913Z,472.00
2023-05-12T06:01:06.817Z,452.00
2023-05-12T06:02:06.904Z,440.00
2023-05-12T18:45:02.834Z,500.00
2023-05-12T18:46:03.848Z,500.00
2023-05-12T18:47:03.823Z,500.00
2023-05-12T18:48:03.902Z,500.00
2023-05-12T18:49:03.831Z,500.00
2023-05-12T18:50:03.837Z,499.00
2023-05-12T18:51:03.845Z,499.00
2023-05-12T18:52:03.860Z,500.00
2023-05-12T18:53:03.880Z,500.00
2023-05-12T18:54:03.888Z,500.00
2023-05-12T18:55:03.918Z,500.00
2023-05-12T18:56:03.906Z,500.00
2023-05-12T18:57:03.938Z,500.00
2023-05-12T18:58:03.933Z,500.00
2023-05-12T18:59:03.953Z,500.00
2023-05-12T19:00:03.964Z,500.00
2023-05-12T19:01:05.173Z,502.00
2023-05-12T19:02:04.037Z,500.00
2023-05-12T19:03:04.042Z,500.00
2023-05-12T19:04:04.013Z,500.00
2023-05-12T19:05:04.060Z,500.00
2023-05-12T19:06:04.030Z,501.00
2023-05-12T19:07:04.051Z,500.00
2023-05-12T19:08:04.073Z,501.00
2023-05-12T19:09:04.094Z,500.00
2023-05-12T19:10:04.102Z,500.00
2023-05-12T19:11:04.145Z,501.00
2023-05-12T19:12:04.140Z,500.00
2023-05-12T19:13:04.149Z,503.00
2023-05-12T19:14:04.169Z,500.00
2023-05-12T19:15:04.186Z,502.00
2023-05-12T19:16:04.257Z,503.00
2023-05-12T19:17:04.239Z,500.00
2023-05-12T19:18:04.254Z,500.00
2023-05-12T19:19:04.297Z,501.00
2023-05-12T19:20:04.497Z,502.00
2023-05-12T19:21:04.256Z,500.00
2023-05-12T19:22:04.267Z,503.00
2023-05-12T19:23:04.287Z,501.00
2023-05-12T19:24:04.292Z,502.00
2023-05-12T19:25:04.304Z,501.00
2023-05-12T19:26:04.331Z,501.00
2023-05-12T19:27:04.347Z,502.00
2023-05-12T19:28:04.343Z,500.00
2023-05-12T19:29:04.468Z,500.00
2023-05-12T19:30:04.366Z,500.00
2023-05-12T19:31:04.380Z,501.00
2023-05-12T19:32:04.453Z,502.00
2023-05-12T19:33:04.462Z,500.00
2023-05-12T19:34:04.434Z,504.00
2023-05-12T19:35:04.441Z,501.00
2023-05-12T19:36:04.459Z,502.00
2023-05-12T19:37:04.462Z,502.00
2023-05-12T19:38:04.471Z,501.00
2023-05-12T19:39:04.478Z,503.00
2023-05-12T19:40:04.481Z,504.00
2023-05-12T19:41:04.498Z,503.00
2023-05-12T19:42:04.509Z,502.00
2023-05-12T19:43:04.532Z,505.00
2023-05-12T19:44:04.528Z,505.00
2023-05-12T19:45:04.566Z,502.00
2023-05-12T19:46:04.650Z,505.00
2023-05-12T19:47:04.785Z,503.00
2023-05-12T19:48:04.740Z,505.00
2023-05-12T19:49:04.695Z,508.00
2023-05-12T19:50:04.683Z,509.00
2023-05-12T19:51:04.622Z,507.00
2023-05-12T19:52:04.690Z,504.00
2023-05-12T19:53:04.670Z,506.00
2023-05-12T19:54:04.699Z,509.00
2023-05-12T19:55:04.698Z,508.00
2023-05-12T19:56:04.728Z,511.00
2023-05-12T19:57:04.768Z,508.00
2023-05-12T19:58:04.840Z,506.00
2023-05-12T19:59:04.873Z,508.00
2023-05-12T20:00:04.914Z,512.00
2023-05-12T20:01:05.163Z,511.00
2023-05-12T20:02:05.038Z,506.00
2023-05-12T20:03:05.164Z,515.00
2023-05-12T20:04:05.108Z,511.00
2023-05-12T20:05:05.168Z,514.00
2023-05-12T20:06:05.217Z,514.00
2023-05-12T20:07:05.246Z,515.00
2023-05-12T20:08:05.317Z,513.00
2023-05-12T20:09:05.339Z,518.00
2023-05-12T20:10:05.388Z,517.00
2023-05-12T20:11:05.469Z,514.00
2023-05-12T20:12:07.492Z,518.00
2023-05-12T20:13:05.517Z,523.00
2023-05-12T20:14:05.541Z,522.00
2023-05-12T20:15:05.590Z,518.00
2023-05-12T20:16:05.584Z,517.00
2023-05-12T20:17:05.796Z,518.00
2023-05-12T20:18:05.678Z,524.00
2023-05-12T20:19:05.672Z,518.00
2023-05-12T20:20:05.665Z,517.00
2023-05-12T20:21:05.718Z,517.00
2023-05-12T20:22:05.708Z,523.00
2023-05-12T20:23:05.728Z,520.00
2023-05-12T20:24:05.745Z,523.00
2023-05-12T20:25:05.774Z,522.00
2023-05-12T20:26:05.809Z,524.00
2023-05-12T20:27:05.815Z,526.00
2023-05-12T20:28:05.835Z,524.00
2023-05-12T20:29:05.859Z,525.00
2023-05-12T20:30:05.911Z,526.00
2023-05-12T20:31:05.954Z,526.00
2023-05-12T20:32:05.941Z,527.00
2023-05-12T20:33:06.011Z,530.00
2023-05-12T20:34:05.975Z,528.00
2023-05-12T20:35:06.035Z,526.00
2023-05-12T20:36:06.036Z,526.00
2023-05-12T20:37:06.065Z,530.00
2023-05-12T20:38:06.074Z,530.00
2023-05-12T20:39:06.110Z,527.00
2023-05-12T20:40:06.097Z,528.00
2023-05-12T20:41:06.155Z,531.00
2023-05-12T20:42:06.148Z,530.00
2023-05-12T20:43:06.155Z,530.00
2023-05-12T20:44:06.172Z,535.00
2023-05-12T20:45:06.188Z,532.00
2023-05-12T20:46:06.255Z,530.00
2023-05-12T20:47:06.315Z,536.00
2023-05-12T20:48:06.273Z,530.00
2023-05-12T20:49:06.258Z,532.00
2023-05-12T20:50:06.267Z,536.00
2023-05-12T20:51:06.286Z,531.00
2023-05-12T20:52:06.301Z,537.00
2023-05-12T20:53:06.375Z,535.00
2023-05-12T20:54:06.408Z,534.00
2023-05-12T20:55:06.473Z,535.00
2023-05-12T20:56:06.529Z,538.00
2023-05-12T20:57:06.588Z,537.00
2023-05-12T20:58:06.648Z,535.00
2023-05-12T20:59:06.709Z,536.00
2023-05-12T21:00:06.759Z,535.00
2023-05-12T21:01:06.824Z,536.00
2023-05-12T21:02:06.921Z,540.00
2023-05-12T21:03:06.970Z,535.00
2023-05-12T21:04:07.045Z,542.00
2023-05-12T21:05:07.084Z,541.00
2023-05-12T21:06:07.125Z,543.00
2023-05-12T21:07:07.199Z,539.00
2023-05-12T21:08:07.266Z,545.00
2023-05-12T21:09:07.349Z,544.00
2023-05-12T21:10:07.389Z,545.00
2023-05-12T21:11:07.447Z,542.00
2023-05-12T21:12:07.521Z,541.00
2023-05-12T21:13:07.588Z,546.00
2023-05-12T21:14:07.654Z,545.00
2023-05-12T21:15:07.707Z,546.00
2023-05-12T21:16:07.804Z,545.00
2023-05-12T21:17:07.855Z,548.00
2023-05-12T21:18:07.935Z,550.00
2023-05-12T21:19:08.101Z,544.00
2023-05-12T21:20:08.050Z,548.00
2023-05-12T21:21:08.119Z,552.00
2023-05-12T21:22:08.182Z,549.00
2023-05-12T21:23:08.282Z,545.00
2023-05-12T21:24:08.319Z,548.00
2023-05-12T21:25:08.413Z,550.00
2023-05-12T21:26:08.451Z,546.00
2023-05-12T21:27:08.514Z,549.00
2023-05-12T21:28:08.614Z,544.00
2023-05-12T21:29:08.663Z,550.00
2023-05-12T21:30:08.728Z,550.00
2023-05-12T21:31:08.789Z,550.00
2023-05-12T21:32:09.048Z,551.00
2023-05-12T21:33:09.009Z,552.00
2023-05-12T21:34:09.024Z,552.00
2023-05-12T21:35:09.054Z,549.00
2023-05-12T21:36:09.125Z,557.00
2023-05-12T21:37:09.198Z,557.00
2023-05-12T21:38:09.257Z,553.00
2023-05-12T21:39:09.328Z,556.00
2023-05-12T21:40:09.393Z,553.00
2023-05-12T21:41:09.486Z,555.00
2023-05-12T21:42:09.518Z,556.00
2023-05-12T21:43:09.574Z,557.00
2023-05-12T21:44:11.218Z,556.00
2023-05-12T21:45:09.666Z,555.00
2023-05-12T21:46:09.744Z,565.00
2023-05-12T21:47:09.731Z,562.00
2023-05-12T21:48:09.778Z,556.00
2023-05-12T21:49:09.769Z,561.00
2023-05-12T21:50:09.763Z,560.00
2023-05-12T21:51:09.783Z,560.00
2023-05-12T21:52:09.824Z,560.00
2023-05-12T21:53:09.824Z,561.00
2023-05-12T21:54:09.846Z,559.00
2023-05-12T21:55:09.871Z,562.00
2023-05-12T21:56:09.889Z,562.00
2023-05-12T21:57:09.944Z,561.00
2023-05-12T21:58:09.942Z,561.00
2023-05-12T21:59:09.958Z,561.00
2023-05-12T22:00:09.994Z,559.00
2023-05-12T22:01:10.056Z,565.00
2023-05-12T22:02:10.052Z,562.00
2023-05-12T22:03:10.147Z,563.00
2023-05-12T22:04:10.128Z,560.00
2023-05-12T22:05:10.109Z,562.00
2023-05-12T22:06:10.143Z,563.00
2023-05-12T22:07:10.158Z,563.00
2023-05-12T22:08:10.173Z,563.00
2023-05-12T22:09:10.196Z,564.00
2023-05-12T22:10:10.213Z,567.00
2023-05-12T22:11:10.235Z,566.00
2023-05-12T22:12:10.260Z,563.00
2023-05-12T22:13:10.300Z,562.00
2023-05-12T22:14:10.298Z,570.00
2023-05-12T22:15:10.328Z,571.00
2023-05-12T22:16:10.395Z,565.00
2023-05-12T22:17:10.375Z,561.00
2023-05-12T22:18:10.447Z,571.00
2023-05-12T22:19:10.631Z,567.00
2023-05-12T22:20:10.568Z,570.00
2023-05-12T22:21:10.659Z,564.00
2023-05-12T22:22:10.742Z,569.00
2023-05-12T22:23:10.809Z,570.00
2023-05-12T22:24:10.870Z,569.00
2023-05-12T22:25:10.946Z,567.00
2023-05-12T22:26:11.037Z,573.00
2023-05-12T22:27:11.093Z,570.00
2023-05-12T22:28:11.218Z,572.00
2023-05-12T22:29:11.281Z,573.00
2023-05-12T22:30:11.342Z,571.00
2023-05-12T22:31:11.434Z,572.00
2023-05-12T22:32:11.498Z,574.00
2023-05-12T22:33:11.565Z,572.00
2023-05-12T22:34:11.636Z,572.00
2023-05-12T22:35:11.732Z,572.00
2023-05-12T22:36:11.815Z,574.00
2023-05-12T22:37:11.876Z,576.00
2023-05-12T22:38:11.962Z,572.00
2023-05-12T22:39:12.031Z,572.00
2023-05-12T22:40:12.108Z,575.00
2023-05-12T22:41:12.197Z,573.00
2023-05-12T22:42:12.278Z,575.00
2023-05-12T22:43:12.370Z,576.00
2023-05-12T22:44:12.444Z,575.00
2023-05-12T22:45:12.550Z,578.00
2023-05-12T22:46:12.604Z,573.00
2023-05-12T22:47:12.734Z,579.00
2023-05-12T22:48:12.762Z,577.00
2023-05-12T22:49:12.861Z,577.00
2023-05-12T22:50:12.932Z,582.00
2023-05-12T22:51:13.033Z,578.00
2023-05-12T22:52:13.092Z,581.00
2023-05-12T22:53:13.172Z,582.00
2023-05-12T22:54:13.241Z,581.00
2023-05-12T22:55:13.339Z,582.00
2023-05-12T22:56:13.424Z,579.00
2023-05-12T22:57:13.488Z,583.00
2023-05-12T22:58:13.576Z,586.00
2023-05-12T22:59:13.655Z,579.00
2023-05-12T23:00:13.740Z,581.00
2023-05-12T23:01:13.881Z,584.00
2023-05-12T23:02:13.911Z,584.00
2023-05-12T23:03:13.994Z,583.00
2023-05-12T23:04:14.103Z,585.00
2023-05-12T23:55:38.817Z,500.00
2023-05-12T23:56:39.808Z,500.00
2023-05-12T23:57:39.843Z,500.00
2023-05-12T23:58:39.888Z,500.00
2023-05-12T23:59:39.945Z,500.00
